• Join FlightAware (Why Join?)
  • Login
  • US Flag 
05:26AM EST


 

Airport Tracker/Info


-or-


 

Live Flight TrackerFlight Track Log ✈ EGF4218 ✈ 26-Apr-2013 ✈ KORD - KTUL

Flight Track Log - Related Links

Times and Time Zones

All times are in EDT time to prevent confusion due to time zone crossing. See the EGF4218 flight status page for this flight to view local times or setup timezone preferences in your user account.

Time Position Orientation Groundspeed Altitude Reporting Facility
EDT Latitude Longitude Course Direction KTS MPH feet Rate Location/Type
10:36AM 41.9667 -87.9667 254° West 187 215 2,800  Level Chicago TRACON
10:37AM 41.9333 -88.0500 242° Southwest 237 273 4,500 1,020 Climbing Chicago TRACON
10:38AM 41.8941 -88.2627 255° West  Level FlightAware Approximate
10:38AM 41.9225 -88.1444 261° West 227 261 5,000  Level Chicago Center
10:39AM 41.8582 -88.3796 242° Southwest  Level FlightAware Approximate
10:39AM 41.9242 -88.2367 271° West 247 284 6,400  Level Chicago Center
10:40AM 41.8296 -88.5004 254° West  Level FlightAware Approximate
10:40AM 41.9269 -88.3278 272° West 247 284 8,700  Level Chicago Center
10:41AM 41.8027 -88.6223 254° West  Level FlightAware Approximate
10:41AM 41.9264 -88.4219 270° West 252 290 10,700  Level Chicago Center
10:42AM 41.8958 -88.5353 250° West 270 311 13,000 2,040 Climbing Chicago Center
10:43AM 41.8694 -88.6308 250° West 275 316 15,000 1,800 Climbing Chicago Center
10:44AM 41.8444 -88.7272 251° West 276 318 16,800 1,320 Climbing Chicago Center
10:45AM 41.8181 -88.8253 250° West 282 325 17,800 1,080 Climbing Chicago Center
10:46AM 41.7917 -88.9289 251° West 294 338 19,100 1,260 Climbing Chicago Center
10:47AM 41.7564 -89.0597 250° West 311 358 20,500 1,260 Climbing Chicago Center
10:48AM 41.7256 -89.1714 250° West 320 368 21,800 1,200 Climbing Chicago Center
10:49AM 41.6950 -89.2842 250° West 324 373 23,000 1,140 Climbing Chicago Center
10:50AM 41.6644 -89.3981 250° West 326 375 24,200 1,200 Climbing Chicago Center
10:51AM 41.6344 -89.5111 250° West 326 375 25,500 1,020 Climbing Chicago Center
10:52AM 41.5908 -89.6217 242° Southwest 330 380 26,400 900 Climbing Chicago Center
10:54AM 41.5308 -89.7436 237° Southwest 331 381 27,400 780 Climbing Chicago Center
10:55AM 41.4817 -89.8475 238° Southwest 331 381 28,100 780 Climbing Chicago Center
10:56AM 41.4336 -89.9472 237° Southwest 325 374 29,100 1,020 Climbing Chicago Center
10:57AM 41.3872 -90.0481 239° Southwest 322 371 30,300 1,080 Climbing Chicago Center
10:58AM 41.3419 -90.1456 238° Southwest 315 362 31,400 960 Climbing Chicago Center
10:59AM 41.2836 -90.2664 237° Southwest 321 369 32,400 720 Climbing Chicago Center
11:00AM 41.2344 -90.3736 239° Southwest 337 388 33,000 240 Climbing Chicago Center
11:01AM 41.1808 -90.4814 237° Southwest 348 400 33,000  Level Chicago Center
11:02AM 41.1261 -90.5967 238° Southwest 366 421 33,000  Level Chicago Center
11:03AM 41.0708 -90.7136 238° Southwest 374 430 33,000 480 Level Chicago Center
11:04AM 41.0144 -90.8278 237° Southwest 373 429 34,000 960 Climbing Chicago Center
11:05AM 40.9492 -90.9628 237° Southwest 366 421 35,000 480 Climbing Chicago Center
11:06AM 40.8936 -91.0764 237° Southwest 368 423 35,000 300 Level Chicago Center
11:07AM 40.8353 -91.1922 236° Southwest 376 433 35,700 480 Climbing Chicago Center
11:08AM 40.7825 -91.3039 238° Southwest 364 419 36,000 120 Climbing Chicago Center
11:09AM 40.7289 -91.4097 236° Southwest 365 420 36,000  Level Chicago Center
11:10AM 40.6653 -91.5436 238° Southwest 362 417 36,000  Level Chicago Center
11:11AM 40.6094 -91.6522 236° Southwest 361 415 36,000  Level Chicago Center
11:12AM 40.5586 -91.7628 239° Southwest 358 412 36,000  Level Chicago Center
11:13AM 40.5236 -91.8936 251° West 354 407 36,000  Level Chicago Center
11:14AM 40.4744 -92.0233 244° Southwest 354 407 36,000  Level Kansas City Center
11:15AM 40.4233 -92.1447 241° Southwest 351 404 36,000  Level Kansas City Center
11:16AM 40.3753 -92.2592 241° Southwest 355 409 36,000  Level Kansas City Center
11:17AM 40.3228 -92.3706 238° Southwest 357 411 36,000  Level Kansas City Center
11:18AM 40.2767 -92.4956 244° Southwest 352 405 36,000  Level Kansas City Center
11:19AM 40.2294 -92.6053 241° Southwest 357 411 36,000  Level Kansas City Center
11:20AM 40.1808 -92.7139 240° Southwest 360 414 36,000  Level Kansas City Center
11:21AM 40.1256 -92.8419 241° Southwest 361 415 36,000  Level Kansas City Center
11:23AM 40.0783 -92.9517 241° Southwest 363 418 36,000  Level Kansas City Center
11:24AM 40.0219 -93.0794 240° Southwest 364 419 36,000  Level Kansas City Center
11:25AM 39.9750 -93.1911 241° Southwest 365 420 36,000  Level Kansas City Center
11:26AM 39.9267 -93.3019 240° Southwest 364 419 36,000  Level Kansas City Center
11:27AM 39.8661 -93.4369 240° Southwest 362 417 36,000  Level Kansas City Center
11:28AM 39.8161 -93.5500 240° Southwest 363 418 36,000  Level Kansas City Center
11:29AM 39.7672 -93.6628 241° Southwest 361 415 36,000  Level Kansas City Center
11:30AM 39.7128 -93.7881 241° Southwest 356 410 36,000  Level Kansas City Center
11:31AM 39.6653 -93.8944 240° Southwest 355 409 36,000  Level Kansas City Center
11:32AM 39.6178 -94.0022 240° Southwest 359 413 36,000  Level Kansas City Center
11:33AM 39.5617 -94.1267 240° Southwest 358 412 36,000  Level Kansas City Center
11:34AM 39.5136 -94.2336 240° Southwest 359 413 36,000  Level Kansas City Center
11:35AM 39.4581 -94.3586 240° Southwest 359 413 36,000  Level Kansas City Center
11:36AM 39.4094 -94.4653 239° Southwest 359 413 36,000  Level Kansas City Center
11:37AM 39.3519 -94.5883 239° Southwest 358 412 36,000  Level Kansas City Center
11:38AM 39.3042 -94.6953 240° Southwest 359 413 36,000  Level Kansas City Center
11:39AM 39.2172 -94.7600 210° Southwest 375 432 36,000  Level Kansas City Center
11:40AM 39.1003 -94.8031 196° South 384 442 36,000  Level Kansas City Center
11:41AM 38.9994 -94.8386 195° South 387 445 36,000  Level Kansas City Center
11:42AM 38.8825 -94.8803 196° South 388 447 36,000  Level Kansas City Center
11:43AM 38.7825 -94.9156 195° South 387 445 36,000  Level Kansas City Center
11:44AM 38.6828 -94.9500 195° South 388 447 36,000  Level Kansas City Center
11:45AM 38.5653 -94.9917 195° South 391 450 36,000  Level Kansas City Center
11:46AM 38.4664 -95.0256 195° South 387 445 36,000  Level Kansas City Center
11:47AM 38.3506 -95.0653 195° South 383 441 36,000  Level Kansas City Center
11:48AM 38.2514 -95.1011 196° South 384 442 36,000  Level Kansas City Center
11:49AM 38.1364 -95.1481 198° South 387 445 36,000  Level Kansas City Center
11:50AM 38.0378 -95.1867 197° South 387 445 36,000  Level Kansas City Center
11:51AM 37.9322 -95.2283 197° South 393 452 36,000 -60 Level Kansas City Center
11:52AM 37.8292 -95.2664 196° South 388 447 35,900 -600 Descending Kansas City Center
11:53AM 37.7261 -95.3111 199° South 390 449 34,800 -1,620 Descending Kansas City Center
11:54AM 37.6131 -95.3783 205° Southwest 375 432 32,600 -2,280 Descending Kansas City Center
11:56AM 37.5167 -95.3957 188° South  Level FlightAware Approximate
11:57AM 37.4278 -95.5106 188° South 382 440 27,900  Level Kansas City Center
11:58AM 37.3317 -95.5747 208° Southwest 388 447 25,500 -1,860 Descending Kansas City Center
11:59AM 37.2361 -95.6389 208° Southwest 390 449 24,200 -1,320 Descending Kansas City Center
12:00PM 37.1419 -95.6897 203° Southwest 383 441 22,800 -2,220 Descending Kansas City Center
12:01PM 37.0128 -95.7131 188° South 388 447 19,600 -2,880 Descending Kansas City Center
12:02PM 36.9044 -95.7361 190° South 393 452 16,900 -2,700 Descending Kansas City Center
12:03PM 36.8072 -95.7594 191° South 362 417 14,300 -2,580 Descending Kansas City Center
12:04PM 36.7083 -95.7803 190° South 323 372 11,700 -1,920 Descending Kansas City Center
12:05PM 36.6297 -95.7958 189° South 320 368 10,300 -1,020 Descending Kansas City Center
12:06PM 36.5544 -95.8189 194° South 247 284 9,700 -840 Descending Kansas City Center
12:07PM 36.5125 -95.8686 224° Southwest 212 244 8,700 -1,260 Descending Kansas City Center
12:08PM 36.4636 -95.9347 227° Southwest 226 260 7,300 -1,260 Descending Kansas City Center
12:09PM 36.4203 -95.9922 227° Southwest 231 266 6,100 -1,200 Descending Kansas City Center
12:10PM 36.3744 -96.0531 227° Southwest 230 265 4,800 -1,200 Descending Kansas City Center
12:11PM 36.3353 -96.1044 227° Southwest 236 272 3,800 -1,080 Descending Kansas City Center
12:11PM 36.3294 -96.1122 227° Southwest 234 269 3,700 -240 Descending Kansas City Center
12:12PM 36.2872 -96.1597 222° Southwest 235 270 3,600 -240 Descending Kansas City Center
12:12PM 36.2778 -96.1608 185° South 237 273 3,500 -120 Descending Kansas City Center
12:13PM 36.2289 -96.1619 181° South 220 253 3,500  Level Kansas City Center
12:13PM 36.2167 -96.1586 168° South 227 261 3,500 -300 Level Kansas City Center
12:14PM 36.1939 -96.1197 126° Southeast 190 219 3,200 -600 Descending Kansas City Center
12:14PM 36.1928 -96.0928 93° East 204 235 2,900 -300 Descending Kansas City Center
12:15PM 36.1928 -96.0578 90° East 180 207 2,900  Level Kansas City Center